Terminal Aerodrome Forecast
Issued by NWS

Home | Current Version | Previous Version | Text Only | Print | Product List | Glossary On
Versions: 1 2 3 4 5 6 7 8 9 10 11 12 13
000
FTUS45 KSLC 281722
TAF36U
TAF
K36U 281722Z 2818/2918 24008KT P6SM SKC
     FM281900 24011G18KT P6SM FEW100
     FM282200 29009KT P6SM SCT090
     FM290300 VRB05KT P6SM FEW090=

USA.gov is the U.S. government's official web portal to all federal, state and local government web resources and services.